createdAt,value
2023-05-04T00:00:26.208Z,4.85
2023-05-04T00:02:53.494Z,4.10
2023-05-04T00:05:21.074Z,4.10
2023-05-04T00:07:48.333Z,5.20
2023-05-04T00:10:15.528Z,4.13
2023-05-04T00:12:42.828Z,4.22
2023-05-04T00:15:10.487Z,3.58
2023-05-04T00:17:37.963Z,4.50
2023-05-04T00:20:05.647Z,3.80
2023-05-04T00:22:33.009Z,4.18
2023-05-04T00:25:00.177Z,3.92
2023-05-04T00:27:27.322Z,4.15
2023-05-04T00:29:54.489Z,4.22
2023-05-04T00:32:21.838Z,3.70
2023-05-04T00:34:49.447Z,3.70
2023-05-04T00:37:16.588Z,4.35
2023-05-04T00:39:43.742Z,3.58
2023-05-04T00:42:11.533Z,3.65
2023-05-04T00:44:41.453Z,3.58
2023-05-04T00:47:09.506Z,3.80
2023-05-04T00:49:36.766Z,4.47
2023-05-04T00:52:04.609Z,3.60
2023-05-04T00:54:32.589Z,3.53
2023-05-04T00:56:59.971Z,3.58
2023-05-04T00:59:27.113Z,3.35
2023-05-04T01:01:54.333Z,3.92
2023-05-04T01:04:21.583Z,3.30
2023-05-04T01:06:49.647Z,4.10
2023-05-04T01:09:26.953Z,4.22
2023-05-04T01:12:00.990Z,4.07
2023-05-04T01:14:28.496Z,4.18
2023-05-04T01:16:57.354Z,3.50
2023-05-04T01:19:24.610Z,3.78
2023-05-04T01:21:51.834Z,3.78
2023-05-04T01:24:19.144Z,3.95
2023-05-04T01:26:47.390Z,3.35
2023-05-04T01:29:19.465Z,3.83
2023-05-04T01:31:47.410Z,4.25
2023-05-04T01:34:14.887Z,3.38
2023-05-04T01:36:42.727Z,4.70
2023-05-04T01:39:09.911Z,3.80
2023-05-04T01:41:37.143Z,3.80
2023-05-04T01:44:05.206Z,3.88
2023-05-04T01:46:32.454Z,3.78
2023-05-04T01:48:59.808Z,3.33
2023-05-04T01:51:26.944Z,4.03
2023-05-04T01:53:54.223Z,3.70
2023-05-04T01:56:23.043Z,4.60
2023-05-04T01:58:50.216Z,3.60
2023-05-04T02:01:17.347Z,3.88
2023-05-04T02:03:44.794Z,3.42
2023-05-04T02:06:12.296Z,3.33
2023-05-04T02:08:40.214Z,3.70
2023-05-04T02:11:07.402Z,3.88
2023-05-04T02:13:34.647Z,3.83
2023-05-04T02:16:01.841Z,3.80
2023-05-04T02:18:29.015Z,3.88
2023-05-04T02:20:56.209Z,3.85
2023-05-04T02:23:23.313Z,3.33
2023-05-04T02:25:50.637Z,3.53
2023-05-04T02:28:17.853Z,3.30
2023-05-04T02:30:45.072Z,3.63
2023-05-04T02:33:12.281Z,3.22
2023-05-04T02:35:39.605Z,3.10
2023-05-04T02:38:06.793Z,3.35
2023-05-04T02:40:34.060Z,3.58
2023-05-04T02:43:01.215Z,3.13
2023-05-04T02:45:28.492Z,3.40
2023-05-04T02:47:55.710Z,3.30
2023-05-04T02:50:22.854Z,3.38
2023-05-04T02:52:49.991Z,3.47
2023-05-04T02:55:17.158Z,2.92
2023-05-04T02:57:44.670Z,3.40
2023-05-04T03:00:12.067Z,3.05
2023-05-04T03:02:39.315Z,3.25
2023-05-04T03:05:06.690Z,3.25
2023-05-04T03:07:33.897Z,3.38
2023-05-04T03:10:01.109Z,3.15
2023-05-04T03:12:28.327Z,3.15
2023-05-04T03:14:55.470Z,3.20
2023-05-04T03:17:22.630Z,3.50
2023-05-04T03:19:49.779Z,3.40
2023-05-04T03:22:16.974Z,3.55
2023-05-04T03:24:44.185Z,3.00
2023-05-04T03:27:11.358Z,3.78
2023-05-04T03:29:38.498Z,3.53
2023-05-04T03:32:06.798Z,3.35
2023-05-04T03:34:34.154Z,3.20
2023-05-04T03:37:01.331Z,3.47
2023-05-04T03:39:28.507Z,3.70
2023-05-04T03:41:55.715Z,3.65
2023-05-04T03:44:22.877Z,3.38
2023-05-04T03:46:50.131Z,3.40
2023-05-04T03:49:17.418Z,3.22
2023-05-04T03:51:44.566Z,3.10
2023-05-04T03:54:11.756Z,3.20
2023-05-04T03:56:39.019Z,3.30
2023-05-04T03:59:06.169Z,3.13
2023-05-04T04:01:33.314Z,3.40
2023-05-04T04:04:00.508Z,3.35
2023-05-04T04:06:27.733Z,3.10
2023-05-04T04:08:54.899Z,3.60
2023-05-04T04:11:22.023Z,3.10
2023-05-04T04:13:49.140Z,3.33
2023-05-04T04:16:16.415Z,2.92
2023-05-04T04:18:43.587Z,3.20
2023-05-04T04:21:10.789Z,3.45
2023-05-04T04:23:38.016Z,3.15
2023-05-04T04:26:06.234Z,3.20
2023-05-04T04:28:33.920Z,3.28
2023-05-04T04:31:01.872Z,3.47
2023-05-04T04:33:29.062Z,3.35
2023-05-04T04:35:59.275Z,3.25
2023-05-04T04:38:26.785Z,3.35
2023-05-04T04:40:53.944Z,3.58
2023-05-04T04:43:21.058Z,3.70
2023-05-04T04:45:48.227Z,3.50
2023-05-04T04:48:15.379Z,3.10
2023-05-04T04:50:42.958Z,3.42
2023-05-04T04:53:10.950Z,3.85
2023-05-04T04:55:38.086Z,4.70
2023-05-04T04:58:05.319Z,3.50
2023-05-04T05:00:32.495Z,3.47
2023-05-04T05:02:59.802Z,3.50
2023-05-04T05:05:27.074Z,4.10
2023-05-04T05:07:54.239Z,4.45
2023-05-04T05:10:21.962Z,3.72
2023-05-04T05:12:50.658Z,4.03
2023-05-04T05:15:17.889Z,4.05
2023-05-04T05:17:45.089Z,4.45
2023-05-04T05:20:12.510Z,4.40
2023-05-04T05:22:40.265Z,4.13
2023-05-04T05:25:10.372Z,3.80
2023-05-04T05:27:37.770Z,4.30
2023-05-04T05:30:06.296Z,4.47
2023-05-04T05:32:33.933Z,5.40
2023-05-04T05:35:01.131Z,6.03
2023-05-04T05:37:28.270Z,9.48
2023-05-04T05:39:55.454Z,10.88
2023-05-04T05:42:22.755Z,10.68
2023-05-04T05:44:49.938Z,10.88
2023-05-04T05:47:17.451Z,10.25
2023-05-04T05:49:46.255Z,11.27
2023-05-04T05:52:13.748Z,11.57
2023-05-04T05:54:41.316Z,14.02
2023-05-04T05:57:08.489Z,13.18
2023-05-04T05:59:35.654Z,12.60
2023-05-04T06:02:02.826Z,12.05
2023-05-04T06:04:30.151Z,12.95
2023-05-04T06:06:57.324Z,12.75
2023-05-04T06:09:24.473Z,13.52
2023-05-04T06:11:53.370Z,13.57
2023-05-04T06:14:21.942Z,13.13
2023-05-04T06:16:49.167Z,12.23
2023-05-04T06:19:16.487Z,11.95
2023-05-04T06:21:43.601Z,11.40
2023-05-04T06:24:10.872Z,12.23
2023-05-04T06:26:38.302Z,11.73
2023-05-04T06:29:05.690Z,10.98
2023-05-04T06:31:32.896Z,11.60
2023-05-04T06:34:00.091Z,11.63
2023-05-04T06:36:27.259Z,10.93
2023-05-04T06:38:55.638Z,11.70
2023-05-04T06:41:22.891Z,10.70
2023-05-04T06:43:50.118Z,12.13
2023-05-04T06:46:17.451Z,12.20
2023-05-04T06:48:44.755Z,12.82
2023-05-04T06:51:11.889Z,10.27
2023-05-04T06:53:39.148Z,10.10
2023-05-04T06:56:07.363Z,8.63
2023-05-04T06:58:34.554Z,8.15
2023-05-04T07:01:01.873Z,8.70
2023-05-04T07:03:29.109Z,6.80
2023-05-04T07:05:56.360Z,6.78
2023-05-04T07:08:23.509Z,6.75
2023-05-04T07:10:50.661Z,6.40
2023-05-04T07:13:18.344Z,6.43
2023-05-04T07:15:45.603Z,5.85
2023-05-04T07:18:13.078Z,5.88
2023-05-04T07:20:42.563Z,6.90
2023-05-04T07:23:09.780Z,5.60
2023-05-04T07:25:36.939Z,5.88
2023-05-04T07:28:04.284Z,5.65
2023-05-04T07:30:31.477Z,4.60
2023-05-04T07:32:58.733Z,5.30
2023-05-04T07:35:27.058Z,4.57
2023-05-04T07:37:54.238Z,4.85
2023-05-04T07:40:21.555Z,4.50
2023-05-04T07:42:48.746Z,5.35
2023-05-04T07:45:17.463Z,4.45
2023-05-04T07:47:44.732Z,5.22
2023-05-04T07:50:12.222Z,4.13
2023-05-04T07:52:39.536Z,4.53
2023-05-04T07:55:07.046Z,4.38
2023-05-04T07:57:35.755Z,4.63
2023-05-04T08:00:04.970Z,4.45
2023-05-04T08:02:32.384Z,4.43
2023-05-04T08:04:59.611Z,4.70
2023-05-04T08:07:26.852Z,4.40
2023-05-04T08:09:55.813Z,4.28
2023-05-04T08:12:24.087Z,3.90
2023-05-04T08:14:51.567Z,4.55
2023-05-04T08:17:18.744Z,4.25
2023-05-04T08:19:45.893Z,4.03
2023-05-04T08:22:13.064Z,3.55
2023-05-04T08:24:40.207Z,3.40
2023-05-04T08:27:08.735Z,3.72
2023-05-04T08:29:37.230Z,3.65
2023-05-04T08:32:04.784Z,3.33
2023-05-04T08:34:32.083Z,3.42
2023-05-04T08:36:59.323Z,3.20
2023-05-04T08:39:26.570Z,3.70
2023-05-04T08:41:53.865Z,3.72
2023-05-04T08:44:22.803Z,3.63
2023-05-04T08:46:53.931Z,3.58
2023-05-04T08:49:21.594Z,3.20
2023-05-04T08:51:52.201Z,3.05
2023-05-04T08:54:19.826Z,3.05
2023-05-04T08:56:47.466Z,3.15
2023-05-04T08:59:23.988Z,3.30
2023-05-04T09:01:53.834Z,2.70
2023-05-04T09:04:22.336Z,2.95
2023-05-04T09:06:49.761Z,3.50
2023-05-04T09:09:17.212Z,2.92
2023-05-04T09:11:44.520Z,3.03
2023-05-04T09:14:11.699Z,3.20
2023-05-04T09:16:39.333Z,3.10
2023-05-04T09:19:17.690Z,3.10
2023-05-04T09:21:44.848Z,3.40
2023-05-04T09:24:12.618Z,3.15
2023-05-04T09:26:39.828Z,3.03
2023-05-04T09:29:16.183Z,3.58
2023-05-04T09:31:44.424Z,3.35
2023-05-04T09:34:11.586Z,3.00
2023-05-04T09:36:38.736Z,2.80
2023-05-04T09:39:16.327Z,3.08
2023-05-04T09:41:43.488Z,3.00
2023-05-04T09:44:21.370Z,2.80
2023-05-04T09:47:00.703Z,3.05
2023-05-04T09:49:34.276Z,3.30
2023-05-04T09:52:05.092Z,2.65
2023-05-04T09:54:35.101Z,3.10
2023-05-04T09:57:07.375Z,3.35
2023-05-04T09:59:34.700Z,3.30
2023-05-04T10:02:07.562Z,3.20
2023-05-04T10:04:41.778Z,3.17
2023-05-04T10:07:09.222Z,2.75
2023-05-04T10:09:36.754Z,3.40
2023-05-04T10:12:05.379Z,3.05
2023-05-04T10:14:36.185Z,2.70
2023-05-04T10:17:09.896Z,2.92
2023-05-04T10:19:50.188Z,2.90
2023-05-04T10:22:35.981Z,3.35
2023-05-04T10:25:19.179Z,3.35
2023-05-04T10:27:55.454Z,3.42
2023-05-04T10:30:23.351Z,3.40
2023-05-04T10:32:58.029Z,3.47
2023-05-04T10:35:25.670Z,3.40
2023-05-04T10:37:54.519Z,3.40
2023-05-04T10:40:38.279Z,3.17
2023-05-04T10:43:05.720Z,3.03
2023-05-04T10:45:51.608Z,3.30
2023-05-04T10:48:18.850Z,3.83
2023-05-04T10:50:49.891Z,4.10
2023-05-04T10:53:17.913Z,3.45
2023-05-04T10:55:46.087Z,3.15
2023-05-04T10:58:16.516Z,3.20
2023-05-04T11:00:44.880Z,3.40
2023-05-04T11:03:12.479Z,4.05
2023-05-04T11:05:43.335Z,3.28
2023-05-04T11:08:20.512Z,3.58
2023-05-04T11:10:48.279Z,3.67
2023-05-04T11:13:16.226Z,3.42
2023-05-04T11:15:47.023Z,4.40
2023-05-04T11:18:14.325Z,28.70
2023-05-04T11:20:42.572Z,100.22
2023-05-04T11:23:10.434Z,115.80
2023-05-04T11:25:37.999Z,150.85
2023-05-04T11:28:05.456Z,222.63
2023-05-04T11:30:35.780Z,267.20
2023-05-04T11:33:05.261Z,211.13
2023-05-04T11:35:32.530Z,245.65
2023-05-04T11:37:59.767Z,145.68
2023-05-04T11:40:27.739Z,108.93
2023-05-04T11:42:56.971Z,102.97
2023-05-04T11:45:36.444Z,50.38
2023-05-04T11:48:03.757Z,50.65
2023-05-04T11:50:31.712Z,50.28
2023-05-04T11:53:09.963Z,34.83
2023-05-04T11:55:38.058Z,22.25
2023-05-04T11:58:09.145Z,21.05
2023-05-04T12:00:43.055Z,25.45
2023-05-04T12:03:13.127Z,24.58
2023-05-04T12:05:46.482Z,20.00
2023-05-04T12:08:51.981Z,16.20
2023-05-04T12:11:25.947Z,13.70
2023-05-04T12:14:04.006Z,13.18
2023-05-04T12:16:31.632Z,11.68
2023-05-04T12:19:12.693Z,10.52
2023-05-04T12:21:53.683Z,10.20
2023-05-04T12:24:24.430Z,11.55
2023-05-04T12:26:51.706Z,16.85
2023-05-04T12:29:18.896Z,16.88
2023-05-04T12:31:46.205Z,15.40
2023-05-04T12:34:13.528Z,16.13
2023-05-04T12:36:40.844Z,14.50
2023-05-04T12:39:08.216Z,11.38
2023-05-04T12:41:35.432Z,10.13
2023-05-04T12:44:02.923Z,11.43
2023-05-04T12:46:30.220Z,9.30
2023-05-04T12:48:57.720Z,9.85
2023-05-04T12:51:24.855Z,9.50
2023-05-04T12:53:52.257Z,8.60
2023-05-04T12:56:19.412Z,7.47
2023-05-04T12:58:46.699Z,8.38
2023-05-04T13:01:13.900Z,7.82
2023-05-04T13:03:41.301Z,7.45
2023-05-04T13:06:08.992Z,7.82
2023-05-04T13:08:36.164Z,7.40
2023-05-04T13:11:03.376Z,7.47
2023-05-04T13:13:30.760Z,7.03
2023-05-04T13:15:58.049Z,7.10
2023-05-04T13:18:28.524Z,6.90
2023-05-04T13:20:56.142Z,7.50
2023-05-04T13:23:23.913Z,6.88
2023-05-04T13:25:51.516Z,7.43
2023-05-04T13:28:18.917Z,7.35
2023-05-04T13:30:46.382Z,7.00
2023-05-04T13:33:25.036Z,7.97
2023-05-04T13:35:56.871Z,6.88
2023-05-04T13:38:24.546Z,6.40
2023-05-04T13:40:51.681Z,6.68
2023-05-04T13:43:18.945Z,6.47
2023-05-04T13:45:46.150Z,6.68
2023-05-04T13:48:13.284Z,6.55
2023-05-04T13:50:40.737Z,6.53
2023-05-04T13:53:07.919Z,5.70
2023-05-04T13:55:35.048Z,6.10
2023-05-04T13:58:02.305Z,6.00
2023-05-04T14:00:29.445Z,6.05
2023-05-04T14:02:56.638Z,5.78
2023-05-04T14:05:23.887Z,6.22
2023-05-04T14:07:52.241Z,5.95
2023-05-04T14:10:19.409Z,6.22
2023-05-04T14:12:46.882Z,6.43
2023-05-04T14:15:16.426Z,6.05
2023-05-04T14:17:43.697Z,6.45
2023-05-04T14:20:11.063Z,6.57
2023-05-04T14:22:41.098Z,6.10
2023-05-04T14:26:51.672Z,6.80
2023-05-04T14:29:18.811Z,6.80
2023-05-04T14:31:46.004Z,6.57
2023-05-04T14:34:13.279Z,6.28
2023-05-04T14:36:40.551Z,7.10
2023-05-04T14:39:08.072Z,6.43
2023-05-04T14:41:37.237Z,6.40
2023-05-04T14:44:04.700Z,7.63
2023-05-04T14:46:31.897Z,7.28
2023-05-04T14:48:59.132Z,7.72
2023-05-04T14:51:27.686Z,7.18
2023-05-04T14:53:54.953Z,6.95
2023-05-04T14:56:22.274Z,6.68
2023-05-04T14:58:49.418Z,6.30
2023-05-04T15:01:16.596Z,6.63
2023-05-04T15:03:43.978Z,7.32
2023-05-04T15:06:11.536Z,7.18
2023-05-04T15:08:38.902Z,6.25
2023-05-04T15:11:06.067Z,7.55
2023-05-04T15:13:33.235Z,6.60
2023-05-04T15:16:00.496Z,6.65
2023-05-04T15:18:28.017Z,7.25
2023-05-04T15:20:55.223Z,8.00
2023-05-04T15:23:22.450Z,7.55
2023-05-04T15:25:50.012Z,8.10
2023-05-04T15:28:22.791Z,7.35
2023-05-04T15:30:50.030Z,7.30
2023-05-04T15:33:17.224Z,7.38
2023-05-04T15:35:44.385Z,7.68
2023-05-04T15:38:11.564Z,7.13
2023-05-04T15:40:38.763Z,7.13
2023-05-04T15:43:05.959Z,6.80
2023-05-04T15:45:33.112Z,7.40
2023-05-04T15:48:00.490Z,8.00
2023-05-04T15:50:27.686Z,7.57
2023-05-04T15:52:54.829Z,8.43
2023-05-04T15:55:25.254Z,7.47
2023-05-04T15:57:54.034Z,8.60
2023-05-04T16:00:21.598Z,8.02
2023-05-04T16:02:48.924Z,8.25
2023-05-04T16:05:16.204Z,7.53
2023-05-04T16:07:43.400Z,8.10
2023-05-04T16:10:10.995Z,8.00
2023-05-04T16:12:41.376Z,7.70
2023-05-04T16:15:08.704Z,7.30
2023-05-04T16:17:36.098Z,6.95
2023-05-04T16:20:04.317Z,6.82
2023-05-04T16:22:31.777Z,6.75
2023-05-04T16:24:58.996Z,6.97
2023-05-04T16:27:29.533Z,6.50
2023-05-04T16:29:56.874Z,6.85
2023-05-04T16:32:24.049Z,7.55
2023-05-04T16:34:51.265Z,6.72
2023-05-04T16:37:18.976Z,7.28
2023-05-04T16:39:46.283Z,6.47
2023-05-04T16:42:13.440Z,7.40
2023-05-04T16:44:40.639Z,7.18
2023-05-04T16:47:08.254Z,6.13
2023-05-04T16:49:35.412Z,6.75
2023-05-04T16:52:03.002Z,6.60
2023-05-04T16:54:30.428Z,7.28
2023-05-04T16:56:57.571Z,6.55
2023-05-04T16:59:24.988Z,6.82
2023-05-04T17:01:52.266Z,6.90
2023-05-04T17:04:20.562Z,5.88
2023-05-04T17:06:47.740Z,6.63
2023-05-04T17:09:14.904Z,6.82
2023-05-04T17:11:42.086Z,6.93
2023-05-04T17:14:09.328Z,6.22
2023-05-04T17:16:36.507Z,6.22
2023-05-04T17:19:03.807Z,6.45
2023-05-04T17:21:31.267Z,5.63
2023-05-04T17:23:58.408Z,6.43
2023-05-04T17:26:25.540Z,6.55
2023-05-04T17:28:52.689Z,6.18
2023-05-04T17:31:19.899Z,6.03
2023-05-04T17:33:47.051Z,6.82
2023-05-04T17:36:14.210Z,6.20
2023-05-04T17:38:41.899Z,6.57
2023-05-04T17:41:12.009Z,6.28
2023-05-04T17:43:39.275Z,6.68
2023-05-04T17:46:06.669Z,6.43
2023-05-04T17:48:36.266Z,5.75
2023-05-04T17:51:03.571Z,6.63
2023-05-04T17:53:30.788Z,6.03
2023-05-04T17:55:57.946Z,6.28
2023-05-04T17:58:25.897Z,6.70
2023-05-04T18:00:53.286Z,5.85
2023-05-04T18:03:20.747Z,6.00
2023-05-04T18:05:47.984Z,5.65
2023-05-04T18:08:15.153Z,5.75
2023-05-04T18:10:42.308Z,6.05
2023-05-04T18:13:09.532Z,5.53
2023-05-04T18:15:36.789Z,6.43
2023-05-04T18:18:03.921Z,6.03
2023-05-04T18:20:31.124Z,6.03
2023-05-04T18:22:58.272Z,5.78
2023-05-04T18:25:25.610Z,5.53
2023-05-04T18:27:52.879Z,5.70
2023-05-04T18:30:20.032Z,5.28
2023-05-04T18:32:47.240Z,5.32
2023-05-04T18:35:14.403Z,4.88
2023-05-04T18:37:41.627Z,4.95
2023-05-04T18:40:09.902Z,5.55
2023-05-04T18:42:37.313Z,4.85
2023-05-04T18:45:04.636Z,5.13
2023-05-04T18:47:31.844Z,5.85
2023-05-04T18:49:59.918Z,6.25
2023-05-04T18:52:27.055Z,5.90
2023-05-04T18:54:54.969Z,5.07
2023-05-04T18:57:22.156Z,5.30
2023-05-04T18:59:49.314Z,5.10
2023-05-04T19:02:16.516Z,5.57
2023-05-04T19:04:43.664Z,4.85
2023-05-04T19:07:10.803Z,4.60
2023-05-04T19:09:38.023Z,4.70
2023-05-04T19:12:05.426Z,5.95
2023-05-04T19:14:32.853Z,5.18
2023-05-04T19:17:01.070Z,4.60
2023-05-04T19:19:28.420Z,4.30
2023-05-04T19:21:55.673Z,4.65
2023-05-04T19:24:22.943Z,4.60
2023-05-04T19:26:50.205Z,4.55
2023-05-04T19:29:17.345Z,4.60
2023-05-04T19:31:44.643Z,5.20
2023-05-04T19:34:12.549Z,4.63
2023-05-04T19:36:39.800Z,4.50
2023-05-04T19:39:07.040Z,4.57
2023-05-04T19:41:36.375Z,4.10
2023-05-04T19:44:09.964Z,4.20
2023-05-04T19:46:37.779Z,3.95
2023-05-04T19:49:05.004Z,4.15
2023-05-04T19:51:32.838Z,4.22
2023-05-04T19:54:00.177Z,4.45
2023-05-04T19:56:27.342Z,4.63
2023-05-04T19:58:54.476Z,4.38
2023-05-04T20:01:21.754Z,4.57
2023-05-04T20:03:48.890Z,4.90
2023-05-04T20:06:16.019Z,4.30
2023-05-04T20:08:43.190Z,4.38
2023-05-04T20:11:10.341Z,4.97
2023-05-04T20:13:38.149Z,5.40
2023-05-04T20:16:05.567Z,4.57
2023-05-04T20:18:35.476Z,4.35
2023-05-04T20:21:02.703Z,4.95
2023-05-04T20:23:29.879Z,4.60
2023-05-04T20:25:57.262Z,4.32
2023-05-04T20:28:24.457Z,4.65
2023-05-04T20:30:52.956Z,4.38
2023-05-04T20:33:20.214Z,4.47
2023-05-04T20:35:47.477Z,4.30
2023-05-04T20:38:15.414Z,4.57
2023-05-04T20:40:42.570Z,4.25
2023-05-04T20:43:09.764Z,4.40
2023-05-04T20:45:36.920Z,4.25
2023-05-04T20:48:04.541Z,4.80
2023-05-04T20:50:31.770Z,5.97
2023-05-04T20:53:01.111Z,6.30
2023-05-04T20:55:28.489Z,5.47
2023-05-04T20:57:55.673Z,6.10
2023-05-04T21:00:24.699Z,6.38
2023-05-04T21:02:51.987Z,5.90
2023-05-04T21:05:19.321Z,5.95
2023-05-04T21:07:46.693Z,6.10
2023-05-04T21:10:13.930Z,7.68
2023-05-04T21:12:41.147Z,7.40
2023-05-04T21:15:08.548Z,7.57
2023-05-04T21:17:35.777Z,7.13
2023-05-04T21:20:03.104Z,6.18
2023-05-04T21:22:30.438Z,7.00
2023-05-04T21:24:57.638Z,6.38
2023-05-04T21:27:24.942Z,7.18
2023-05-04T21:29:52.095Z,6.40
2023-05-04T21:32:19.194Z,6.38
2023-05-04T21:34:52.392Z,6.10
2023-05-04T21:37:19.826Z,7.90
2023-05-04T21:39:47.349Z,6.93
2023-05-04T21:42:14.484Z,6.70
2023-05-04T21:44:42.817Z,6.30
2023-05-04T21:47:10.024Z,6.90
2023-05-04T21:49:37.216Z,7.07
2023-05-04T21:52:04.415Z,7.00
2023-05-04T21:54:31.548Z,8.00
2023-05-04T21:56:58.647Z,7.75
2023-05-04T21:59:25.779Z,7.60
2023-05-04T22:01:52.941Z,7.47
2023-05-04T22:04:20.145Z,7.72
2023-05-04T22:06:48.225Z,7.90
2023-05-04T22:09:15.921Z,7.10
2023-05-04T22:11:43.149Z,6.80
2023-05-04T22:14:10.595Z,7.43
2023-05-04T22:16:38.268Z,7.03
2023-05-04T22:19:05.611Z,7.18
2023-05-04T22:21:32.955Z,6.63
2023-05-04T22:24:00.650Z,6.63
2023-05-04T22:26:27.828Z,6.30
2023-05-04T22:28:54.974Z,6.50
2023-05-04T22:31:22.295Z,6.43
2023-05-04T22:33:49.518Z,6.35
2023-05-04T22:36:16.730Z,6.70
2023-05-04T22:38:43.866Z,5.57
2023-05-04T22:41:11.139Z,6.35
2023-05-04T22:43:38.257Z,6.53
2023-05-04T22:46:05.490Z,6.28
2023-05-04T22:48:33.056Z,5.55
2023-05-04T22:51:01.136Z,6.10
2023-05-04T22:53:28.258Z,6.20
2023-05-04T22:55:55.417Z,5.95
2023-05-04T22:58:23.448Z,5.93
2023-05-04T23:00:50.850Z,5.90
2023-05-04T23:03:18.023Z,6.20
2023-05-04T23:05:45.280Z,6.05
2023-05-04T23:08:12.436Z,5.95
2023-05-04T23:10:39.581Z,6.18
2023-05-04T23:13:06.778Z,5.60
2023-05-04T23:15:33.945Z,5.25
2023-05-04T23:18:01.253Z,5.50
2023-05-04T23:20:28.546Z,5.47
2023-05-04T23:22:55.811Z,5.78
2023-05-04T23:25:23.181Z,5.32
2023-05-04T23:27:50.294Z,5.38
2023-05-04T23:30:17.503Z,5.40
2023-05-04T23:32:44.782Z,5.18
2023-05-04T23:35:12.029Z,4.93
2023-05-04T23:37:39.192Z,5.32
2023-05-04T23:40:06.944Z,5.07
2023-05-04T23:42:34.305Z,5.13
2023-05-04T23:45:01.486Z,5.60
2023-05-04T23:47:28.655Z,5.25
2023-05-04T23:49:55.818Z,5.65
2023-05-04T23:52:23.239Z,5.22
2023-05-04T23:54:53.797Z,5.57
2023-05-04T23:57:21.000Z,5.30
2023-05-04T23:59:48.144Z,5.53
